createdAt,value
2022-12-29T00:00:24.678Z,97814.06
2022-12-29T00:02:52.304Z,97805.41
2022-12-29T00:05:19.758Z,97807.84
2022-12-29T00:07:47.056Z,97797.03
2022-12-29T00:10:33.845Z,97780.88
2022-12-29T00:13:40.039Z,97784.75
2022-12-29T00:16:28.116Z,97790.59
2022-12-29T00:19:34.440Z,97774.28
2022-12-29T00:22:20.186Z,97781.13
2022-12-29T00:25:05.647Z,97771.13
2022-12-29T00:27:52.055Z,97776.97
2022-12-29T00:30:42.931Z,97771.81
2022-12-29T00:33:32.780Z,97768.06
2022-12-29T00:36:05.871Z,97763.16
2022-12-29T00:38:55.692Z,97764.66
2022-12-29T00:41:41.705Z,97764.66
2022-12-29T00:44:11.259Z,97759.56
2022-12-29T00:46:40.746Z,97757.34
2022-12-29T00:49:30.264Z,97758.03
2022-12-29T00:52:07.336Z,97762.06
2022-12-29T00:54:37.719Z,97757.41
2022-12-29T00:57:07.450Z,97760.75
2022-12-29T00:59:37.071Z,97755.44
2022-12-29T01:02:04.485Z,97755.06
2022-12-29T01:04:31.922Z,97755.53
2022-12-29T01:06:59.255Z,97758.31
2022-12-29T01:09:44.508Z,97757.66
2022-12-29T01:12:12.187Z,97762.31
2022-12-29T01:14:39.328Z,97761.91
2022-12-29T01:17:06.666Z,97765.41
2022-12-29T01:19:34.721Z,97762.50
2022-12-29T01:22:02.211Z,97758.25
2022-12-29T01:24:29.641Z,97767.81
2022-12-29T01:26:56.529Z,97756.00
2022-12-29T01:29:23.896Z,97773.94
2022-12-29T01:31:51.324Z,97767.78
2022-12-29T01:34:19.010Z,97768.91
2022-12-29T01:36:46.323Z,97762.97
2022-12-29T01:39:14.373Z,97769.66
2022-12-29T01:41:42.238Z,97774.88
2022-12-29T01:44:50.663Z,97770.56
2022-12-29T01:48:09.879Z,97766.88
2022-12-29T01:50:44.887Z,97775.44
2022-12-29T01:53:32.060Z,97776.94
2022-12-29T01:56:06.867Z,97767.84
2022-12-29T01:58:40.084Z,97771.13
2022-12-29T02:01:07.598Z,97769.03
2022-12-29T02:03:37.512Z,97776.19
2022-12-29T02:06:30.654Z,97766.38
2022-12-29T02:08:58.667Z,97770.09
2022-12-29T02:11:28.102Z,97765.69
2022-12-29T02:13:55.053Z,97762.75
2022-12-29T02:16:41.563Z,97759.66
2022-12-29T02:19:49.016Z,97755.44
2022-12-29T02:22:36.957Z,97752.53
2022-12-29T02:25:36.640Z,97751.78
2022-12-29T02:28:28.929Z,97753.06
2022-12-29T02:31:03.427Z,97748.31
2022-12-29T02:34:11.757Z,97750.50
2022-12-29T02:37:02.016Z,97749.38
2022-12-29T02:39:40.095Z,97740.41
2022-12-29T02:42:21.975Z,97734.72
2022-12-29T02:45:30.243Z,97741.84
2022-12-29T02:48:26.146Z,97739.78
2022-12-29T02:51:06.040Z,97737.16
2022-12-29T02:53:54.548Z,97737.06
2022-12-29T02:56:22.159Z,97738.22
2022-12-29T02:58:49.134Z,97741.75
2022-12-29T03:02:07.516Z,97736.03
2022-12-29T03:05:09.057Z,97739.94
2022-12-29T03:07:54.754Z,97729.19
2022-12-29T03:10:54.149Z,97731.34
2022-12-29T03:14:00.748Z,97732.19
2022-12-29T03:16:45.362Z,97736.94
2022-12-29T03:19:26.780Z,97732.25
2022-12-29T03:22:25.746Z,97726.78
2022-12-29T03:25:31.778Z,97733.63
2022-12-29T03:28:08.584Z,97728.78
2022-12-29T03:30:42.642Z,97720.13
2022-12-29T03:33:17.048Z,97713.53
2022-12-29T03:35:46.801Z,97711.78
2022-12-29T03:38:24.294Z,97713.19
2022-12-29T03:40:57.996Z,97703.06
2022-12-29T03:43:28.019Z,97706.25
2022-12-29T03:45:56.071Z,97709.38
2022-12-29T03:48:23.540Z,97700.25
2022-12-29T03:50:52.508Z,97708.72
2022-12-29T03:53:20.141Z,97706.34
2022-12-29T03:55:47.664Z,97707.66
2022-12-29T03:58:14.608Z,97699.63
2022-12-29T04:00:58.515Z,97700.84
2022-12-29T04:03:25.983Z,97687.63
2022-12-29T04:05:53.345Z,97700.84
2022-12-29T04:08:20.370Z,97704.50
2022-12-29T04:10:50.523Z,97714.97
2022-12-29T04:13:19.272Z,97711.13
2022-12-29T04:15:46.357Z,97713.19
2022-12-29T04:18:14.087Z,97703.72
2022-12-29T04:21:00.154Z,97708.41
2022-12-29T04:23:35.068Z,97709.50
2022-12-29T04:26:05.025Z,97708.53
2022-12-29T04:28:32.443Z,97715.47
2022-12-29T04:31:17.056Z,97717.72
2022-12-29T04:33:47.201Z,97723.84
2022-12-29T04:36:14.557Z,97723.09
2022-12-29T04:38:41.520Z,97720.72
2022-12-29T04:41:09.643Z,97725.88
2022-12-29T04:43:39.192Z,97723.88
2022-12-29T04:46:37.870Z,97720.41
2022-12-29T04:49:09.749Z,97710.91
2022-12-29T04:52:09.374Z,97707.31
2022-12-29T04:54:36.772Z,97711.34
2022-12-29T04:57:11.342Z,97713.91
2022-12-29T04:59:39.549Z,97716.78
2022-12-29T05:02:08.287Z,97711.28
2022-12-29T05:04:36.210Z,97716.31
2022-12-29T05:07:03.328Z,97725.50
2022-12-29T05:09:30.901Z,97708.84
2022-12-29T05:11:58.034Z,97708.91
2022-12-29T05:14:25.008Z,97700.41
2022-12-29T05:16:53.687Z,97702.44
2022-12-29T05:19:23.999Z,97697.91
2022-12-29T05:21:50.954Z,97701.84
2022-12-29T05:24:17.867Z,97696.38
2022-12-29T05:26:45.585Z,97691.00
2022-12-29T05:29:31.253Z,97690.72
2022-12-29T05:31:58.853Z,97685.38
2022-12-29T05:34:26.210Z,97679.22
2022-12-29T05:36:53.847Z,97680.66
2022-12-29T05:39:20.845Z,97696.09
2022-12-29T05:41:54.304Z,97698.50
2022-12-29T05:44:42.894Z,97710.97
2022-12-29T05:47:18.538Z,97706.38
2022-12-29T05:50:10.361Z,97716.69
2022-12-29T05:52:56.023Z,97696.72
2022-12-29T05:55:23.212Z,97711.66
2022-12-29T05:57:53.029Z,97701.75
2022-12-29T06:00:20.543Z,97697.44
2022-12-29T06:02:48.169Z,97710.91
2022-12-29T06:05:17.197Z,97710.38
2022-12-29T06:07:46.248Z,97713.03
2022-12-29T06:10:15.970Z,97708.34
2022-12-29T06:12:50.794Z,97704.50
2022-12-29T06:15:18.374Z,97686.75
2022-12-29T06:17:47.405Z,97687.66
2022-12-29T06:20:14.425Z,97672.81
2022-12-29T06:22:41.796Z,97690.47
2022-12-29T06:25:09.647Z,97694.09
2022-12-29T06:27:37.136Z,97701.84
2022-12-29T06:30:04.929Z,97691.66
2022-12-29T06:32:32.080Z,97698.13
2022-12-29T06:35:07.029Z,97705.69
2022-12-29T06:37:38.244Z,97703.09
2022-12-29T06:40:05.818Z,97703.28
2022-12-29T06:42:45.298Z,97698.66
2022-12-29T06:45:27.218Z,97701.84
2022-12-29T06:47:54.113Z,97693.94
2022-12-29T06:50:21.101Z,97688.44
2022-12-29T06:52:47.987Z,97690.66
2022-12-29T06:55:14.914Z,97693.34
2022-12-29T06:57:41.814Z,97690.38
2022-12-29T07:00:09.739Z,97692.56
2022-12-29T07:02:36.697Z,97688.69
2022-12-29T07:05:03.816Z,97687.09
2022-12-29T07:07:30.712Z,97679.47
2022-12-29T07:09:57.722Z,97677.09
2022-12-29T07:12:25.007Z,97684.00
2022-12-29T07:14:51.915Z,97688.59
2022-12-29T07:17:18.886Z,97689.13
2022-12-29T07:19:46.237Z,97680.97
2022-12-29T07:22:13.170Z,97686.72
2022-12-29T07:24:40.209Z,97678.13
2022-12-29T07:27:07.395Z,97689.75
2022-12-29T07:29:34.454Z,97677.78
2022-12-29T07:32:01.414Z,97682.53
2022-12-29T07:34:28.496Z,97689.31
2022-12-29T07:36:55.806Z,97686.81
2022-12-29T07:39:22.953Z,97689.50
2022-12-29T07:41:49.901Z,97690.81
2022-12-29T07:44:20.217Z,97689.69
2022-12-29T07:46:59.861Z,97702.41
2022-12-29T07:49:27.645Z,97697.78
2022-12-29T07:51:54.616Z,97691.88
2022-12-29T07:54:23.444Z,97696.53
2022-12-29T07:56:51.348Z,97689.88
2022-12-29T07:59:18.613Z,97703.97
2022-12-29T08:01:45.641Z,97704.84
2022-12-29T08:04:13.077Z,97710.25
2022-12-29T08:06:40.369Z,97702.94
2022-12-29T08:09:16.391Z,97712.84
2022-12-29T08:11:46.686Z,97718.38
2022-12-29T08:14:13.776Z,97715.50
2022-12-29T08:16:41.041Z,97728.13
2022-12-29T08:19:08.365Z,97728.06
2022-12-29T08:21:35.713Z,97721.09
2022-12-29T08:24:02.799Z,97730.00
2022-12-29T08:26:29.691Z,97732.53
2022-12-29T08:28:57.307Z,97730.50
2022-12-29T08:31:24.656Z,97724.81
2022-12-29T08:33:52.441Z,97731.22
2022-12-29T08:36:19.541Z,97728.63
2022-12-29T08:38:46.442Z,97730.44
2022-12-29T08:41:13.738Z,97725.09
2022-12-29T08:43:41.245Z,97729.09
2022-12-29T08:46:08.582Z,97728.59
2022-12-29T08:48:35.611Z,97730.75
2022-12-29T08:51:02.491Z,97718.25
2022-12-29T08:53:29.495Z,97711.84
2022-12-29T08:56:04.526Z,97717.28
2022-12-29T08:58:39.118Z,97721.00
2022-12-29T09:01:06.144Z,97721.28
2022-12-29T09:06:20.803Z,97741.66
2022-12-29T09:08:47.902Z,97750.13
2022-12-29T09:11:20.385Z,97741.66
2022-12-29T09:13:48.173Z,97746.00
2022-12-29T09:16:16.283Z,97749.91
2022-12-29T09:18:44.191Z,97751.34
2022-12-29T09:21:12.293Z,97754.00
2022-12-29T09:23:40.351Z,97744.31
2022-12-29T09:26:08.583Z,97746.94
2022-12-29T09:28:36.308Z,97761.50
2022-12-29T09:31:03.632Z,97750.16
2022-12-29T09:33:31.012Z,97752.44
2022-12-29T09:35:59.364Z,97759.28
2022-12-29T09:38:27.422Z,97756.38
2022-12-29T09:41:55.661Z,97754.94
2022-12-29T09:44:43.161Z,97752.06
2022-12-29T09:47:14.753Z,97744.28
2022-12-29T09:49:52.735Z,97752.53
2022-12-29T09:52:30.546Z,97758.75
2022-12-29T09:55:15.050Z,97748.44
2022-12-29T09:58:00.926Z,97742.28
2022-12-29T10:00:48.637Z,97742.53
2022-12-29T10:03:23.861Z,97755.97
2022-12-29T10:06:24.346Z,97757.06
2022-12-29T10:09:05.027Z,97754.56
2022-12-29T10:12:07.817Z,97738.72
2022-12-29T10:14:52.261Z,97738.09
2022-12-29T10:17:35.380Z,97742.16
2022-12-29T10:21:02.464Z,97744.81
2022-12-29T10:23:51.331Z,97749.91
2022-12-29T10:26:28.040Z,97752.44
2022-12-29T10:29:03.992Z,97751.28
2022-12-29T10:31:39.681Z,97747.69
2022-12-29T10:34:23.035Z,97756.22
2022-12-29T10:36:56.973Z,97760.44
2022-12-29T10:39:49.010Z,97751.31
2022-12-29T10:42:39.425Z,97744.44
2022-12-29T10:45:11.952Z,97736.28
2022-12-29T10:47:58.872Z,97741.53
2022-12-29T10:50:26.766Z,97747.94
2022-12-29T10:52:55.582Z,97743.34
2022-12-29T10:55:41.620Z,97746.56
2022-12-29T10:58:14.065Z,97743.94
2022-12-29T11:00:41.092Z,97737.44
2022-12-29T11:03:22.484Z,97739.84
2022-12-29T11:06:10.229Z,97733.44
2022-12-29T11:08:42.413Z,97748.38
2022-12-29T11:11:10.305Z,97757.38
2022-12-29T11:13:50.550Z,97744.03
2022-12-29T11:16:32.033Z,97743.94
2022-12-29T11:18:59.892Z,97756.41
2022-12-29T11:21:42.863Z,97736.25
2022-12-29T11:24:29.325Z,97741.19
2022-12-29T11:27:23.636Z,97737.56
2022-12-29T11:29:55.223Z,97740.16
2022-12-29T11:32:29.038Z,97739.50
2022-12-29T11:35:01.891Z,97742.00
2022-12-29T11:37:43.407Z,97738.75
2022-12-29T11:40:21.860Z,97746.66
2022-12-29T11:42:58.374Z,97736.72
2022-12-29T11:45:35.602Z,97729.38
2022-12-29T11:48:09.392Z,97741.59
2022-12-29T11:50:40.988Z,97740.94
2022-12-29T11:53:15.899Z,97738.28
2022-12-29T11:56:03.735Z,97748.09
2022-12-29T11:58:46.019Z,97731.38
2022-12-29T12:01:25.041Z,97735.06
2022-12-29T12:04:17.804Z,97733.22
2022-12-29T12:07:14.926Z,97753.38
2022-12-29T12:09:49.807Z,97749.44
2022-12-29T12:12:34.223Z,97781.59
2022-12-29T12:15:04.160Z,97784.44
2022-12-29T12:18:19.561Z,97789.16
2022-12-29T12:20:55.468Z,97802.47
2022-12-29T12:24:11.393Z,97800.94
2022-12-29T12:27:14.449Z,97802.78
2022-12-29T12:30:00.740Z,97798.63
2022-12-29T12:32:44.249Z,97811.00
2022-12-29T12:35:32.644Z,97800.25
2022-12-29T12:38:36.763Z,97804.28
2022-12-29T12:41:29.912Z,97788.13
2022-12-29T12:44:34.402Z,97772.06
2022-12-29T12:47:08.461Z,97767.09
2022-12-29T12:50:09.367Z,97751.41
2022-12-29T12:52:59.619Z,97760.28
2022-12-29T12:55:59.896Z,97735.88
2022-12-29T12:58:55.313Z,97748.03
2022-12-29T13:01:55.015Z,97749.63
2022-12-29T13:05:26.399Z,97737.22
2022-12-29T13:08:25.042Z,97744.78
2022-12-29T13:11:19.740Z,97738.00
2022-12-29T13:14:15.865Z,97738.06
2022-12-29T13:17:13.655Z,97739.50
2022-12-29T13:20:04.102Z,97733.69
2022-12-29T13:22:48.779Z,97740.94
2022-12-29T13:25:46.990Z,97724.50
2022-12-29T13:28:26.187Z,97724.09
2022-12-29T13:31:05.629Z,97726.84
2022-12-29T13:34:04.399Z,97731.66
2022-12-29T13:36:53.844Z,97737.75
2022-12-29T13:39:28.470Z,97744.84
2022-12-29T13:41:57.695Z,97735.00
2022-12-29T13:44:37.262Z,97724.31
2022-12-29T13:47:30.269Z,97726.44
2022-12-29T13:49:59.807Z,97737.34
2022-12-29T13:52:41.029Z,97740.56
2022-12-29T13:55:42.370Z,97721.84
2022-12-29T13:58:28.090Z,97728.38
2022-12-29T14:01:10.348Z,97735.47
2022-12-29T14:03:44.846Z,97730.75
2022-12-29T14:06:17.332Z,97728.31
2022-12-29T14:08:45.509Z,97738.13
2022-12-29T14:11:16.251Z,97733.59
2022-12-29T14:13:47.406Z,97726.00
2022-12-29T14:16:32.969Z,97724.66
2022-12-29T14:19:31.835Z,97727.53
2022-12-29T14:22:03.382Z,97745.38
2022-12-29T14:24:36.405Z,97752.81
2022-12-29T14:27:12.411Z,97757.59
2022-12-29T14:29:42.330Z,97754.00
2022-12-29T14:32:27.680Z,97746.28
2022-12-29T14:35:00.699Z,97739.06
2022-12-29T14:37:36.176Z,97746.59
2022-12-29T14:40:16.599Z,97741.69
2022-12-29T14:42:44.393Z,97748.03
2022-12-29T14:45:14.304Z,97752.81
2022-12-29T14:47:53.613Z,97748.81
2022-12-29T14:50:41.793Z,97749.69
2022-12-29T14:53:48.815Z,97756.06
2022-12-29T14:56:25.102Z,97755.84
2022-12-29T14:59:04.001Z,97744.53
2022-12-29T15:01:33.942Z,97749.25
2022-12-29T15:04:15.578Z,97753.06
2022-12-29T15:06:45.724Z,97751.50
2022-12-29T15:09:27.755Z,97750.28
2022-12-29T15:12:00.385Z,97749.53
2022-12-29T15:14:40.534Z,97746.63
2022-12-29T15:17:30.365Z,97733.59
2022-12-29T15:19:59.780Z,97743.28
2022-12-29T15:22:27.341Z,97739.00
2022-12-29T15:24:56.522Z,97738.13
2022-12-29T15:27:27.205Z,97743.69
2022-12-29T15:30:02.567Z,97740.03
2022-12-29T15:32:41.407Z,97742.44
2022-12-29T15:35:52.349Z,97738.19
2022-12-29T15:38:34.649Z,97743.50
2022-12-29T15:42:07.301Z,97746.63
2022-12-29T15:44:41.019Z,97749.06
2022-12-29T15:47:23.712Z,97757.50
2022-12-29T15:49:54.346Z,97757.69
2022-12-29T15:52:23.639Z,97759.28
2022-12-29T15:54:53.680Z,97822.50
2022-12-29T15:57:31.328Z,97896.66
2022-12-29T15:59:58.528Z,97899.56
2022-12-29T16:02:26.346Z,97901.72
2022-12-29T16:05:16.707Z,97898.06
2022-12-29T16:08:00.556Z,97894.81
2022-12-29T16:10:48.013Z,97918.41
2022-12-29T16:13:26.643Z,97929.13
2022-12-29T16:16:04.128Z,97908.38
2022-12-29T16:18:36.980Z,97916.56
2022-12-29T16:21:06.755Z,97914.59
2022-12-29T16:23:34.523Z,97917.72
2022-12-29T16:26:08.725Z,97922.78
2022-12-29T16:28:45.221Z,97939.09
2022-12-29T16:32:01.812Z,97931.88
2022-12-29T16:34:45.365Z,97934.44
2022-12-29T16:37:32.401Z,97936.66
2022-12-29T16:40:31.312Z,97939.88
2022-12-29T16:43:05.296Z,97937.78
2022-12-29T16:45:47.308Z,97943.41
2022-12-29T16:48:14.665Z,97919.00
2022-12-29T16:50:45.423Z,97939.53
2022-12-29T16:53:33.879Z,97929.16
2022-12-29T16:56:19.980Z,97915.88
2022-12-29T16:58:59.100Z,97916.34
2022-12-29T17:04:17.789Z,97947.78
2022-12-29T17:06:52.996Z,97966.66
2022-12-29T17:09:29.320Z,97970.72
2022-12-29T17:12:08.732Z,97967.22
2022-12-29T17:15:11.051Z,97995.47
2022-12-29T17:17:39.709Z,97992.09
2022-12-29T17:20:22.650Z,97987.06
2022-12-29T17:22:54.391Z,97956.34
2022-12-29T17:25:29.437Z,97953.41
2022-12-29T17:28:20.301Z,97959.53
2022-12-29T17:30:47.963Z,97969.88
2022-12-29T17:33:17.519Z,97962.41
2022-12-29T17:35:47.451Z,97955.66
2022-12-29T17:38:38.583Z,97962.00
2022-12-29T17:41:14.623Z,97974.09
2022-12-29T17:43:41.994Z,97967.53
2022-12-29T17:46:09.445Z,97986.41
2022-12-29T17:48:36.898Z,97980.91
2022-12-29T17:51:05.146Z,97991.84
2022-12-29T17:53:32.570Z,97994.09
2022-12-29T17:55:59.993Z,97986.47
2022-12-29T17:58:31.783Z,97996.06
2022-12-29T18:01:01.434Z,97983.69
2022-12-29T18:03:32.532Z,97969.31
2022-12-29T18:06:00.264Z,97968.00
2022-12-29T18:08:30.548Z,97954.53
2022-12-29T18:10:58.328Z,97959.97
2022-12-29T18:13:40.457Z,97958.19
2022-12-29T18:16:12.856Z,97970.19
2022-12-29T18:18:39.911Z,97974.97
2022-12-29T18:21:07.080Z,97962.28
2022-12-29T18:23:37.643Z,97963.91
2022-12-29T18:26:31.769Z,97973.50
2022-12-29T18:28:59.719Z,97978.50
2022-12-29T18:31:29.855Z,97976.13
2022-12-29T18:33:59.198Z,97968.47
2022-12-29T18:36:26.849Z,97970.34
2022-12-29T18:38:56.280Z,97974.25
2022-12-29T18:41:32.332Z,97975.16
2022-12-29T18:44:00.273Z,97967.69
2022-12-29T18:46:27.906Z,97971.28
2022-12-29T18:48:55.632Z,97977.66
2022-12-29T18:51:25.111Z,97979.66
2022-12-29T18:53:54.254Z,97974.63
2022-12-29T18:56:23.540Z,97979.91
2022-12-29T18:58:51.530Z,97967.00
2022-12-29T19:01:25.764Z,97974.75
2022-12-29T19:03:52.917Z,97979.56
2022-12-29T19:06:21.295Z,97982.84
2022-12-29T19:08:48.778Z,97982.38
2022-12-29T19:11:16.281Z,97977.28
2022-12-29T19:13:43.671Z,97986.00
2022-12-29T19:16:21.004Z,97979.41
2022-12-29T19:19:02.343Z,97976.41
2022-12-29T19:21:36.421Z,97973.94
2022-12-29T19:24:03.476Z,97993.81
2022-12-29T19:26:34.645Z,98002.53
2022-12-29T19:29:02.473Z,98003.63
2022-12-29T19:31:29.885Z,97961.59
2022-12-29T19:33:56.931Z,97989.81
2022-12-29T19:36:24.163Z,97988.03
2022-12-29T19:38:51.808Z,97976.56
2022-12-29T19:41:19.323Z,97975.94
2022-12-29T19:43:46.398Z,97988.91
2022-12-29T19:46:18.710Z,97985.31
2022-12-29T19:48:45.881Z,97977.97
2022-12-29T19:51:17.125Z,97979.03
2022-12-29T19:53:45.893Z,97997.78
2022-12-29T19:56:13.858Z,97993.53
2022-12-29T19:58:46.591Z,97983.63
2022-12-29T20:01:21.784Z,97994.44
2022-12-29T20:03:50.449Z,97994.19
2022-12-29T20:06:18.007Z,97990.78
2022-12-29T20:08:45.537Z,97989.06
2022-12-29T20:11:18.197Z,97988.25
2022-12-29T20:13:46.368Z,97992.28
2022-12-29T20:16:17.509Z,98009.53
2022-12-29T20:18:45.290Z,98002.31
2022-12-29T20:21:19.523Z,97995.50
2022-12-29T20:23:47.158Z,98001.53
2022-12-29T20:26:25.999Z,98021.25
2022-12-29T20:28:53.855Z,98015.63
2022-12-29T20:31:29.296Z,98007.31
2022-12-29T20:33:56.788Z,98013.16
2022-12-29T20:36:35.560Z,98020.72
2022-12-29T20:39:07.740Z,98019.81
2022-12-29T20:41:35.185Z,98017.28
2022-12-29T20:44:02.566Z,98018.56
2022-12-29T20:46:35.393Z,98018.69
2022-12-29T20:49:08.054Z,98032.53
2022-12-29T20:52:04.560Z,98025.31
2022-12-29T20:54:23.081Z,98040.56
2022-12-29T20:56:50.261Z,98039.47
2022-12-29T20:59:28.686Z,98036.50
2022-12-29T21:02:11.958Z,98055.06
2022-12-29T21:05:26.029Z,98054.84
2022-12-29T21:13:30.335Z,98070.78
2022-12-29T21:16:12.807Z,98068.03
2022-12-29T21:19:14.399Z,98072.41
2022-12-29T21:26:43.949Z,98083.47
2022-12-29T21:29:46.003Z,98084.50
2022-12-29T21:32:20.144Z,98077.69
2022-12-29T21:34:56.889Z,98070.81
2022-12-29T21:37:36.174Z,98069.50
2022-12-29T21:40:32.754Z,98067.72
2022-12-29T21:43:54.073Z,98054.66
2022-12-29T21:47:00.040Z,98067.75
2022-12-29T21:49:51.308Z,98054.00
2022-12-29T21:52:43.886Z,98061.59
2022-12-29T21:55:38.224Z,98059.69
2022-12-29T21:58:29.792Z,98062.06
2022-12-29T22:01:19.674Z,98065.53
2022-12-29T22:04:16.392Z,98052.63
2022-12-29T22:07:23.727Z,98075.94
2022-12-29T22:10:15.159Z,98071.00
2022-12-29T22:12:59.574Z,98071.78
2022-12-29T22:15:40.676Z,98073.59
2022-12-29T22:18:21.361Z,98073.19
2022-12-29T22:20:49.799Z,98059.91
2022-12-29T22:23:53.387Z,98043.28
2022-12-29T22:26:18.617Z,98044.44
2022-12-29T22:29:05.815Z,98060.34
2022-12-29T22:31:40.384Z,98066.94
2022-12-29T22:34:18.950Z,98076.06
2022-12-29T22:37:06.072Z,98096.94
2022-12-29T22:39:38.857Z,98109.66
2022-12-29T22:42:13.139Z,98113.50
2022-12-29T22:44:47.488Z,98115.38
2022-12-29T22:47:25.650Z,98113.94
2022-12-29T22:49:56.744Z,98115.94
2022-12-29T22:52:27.472Z,98121.09
2022-12-29T22:55:18.691Z,98131.88
2022-12-29T22:57:50.031Z,98132.34
2022-12-29T23:00:38.847Z,98136.59
2022-12-29T23:03:32.059Z,98134.63
2022-12-29T23:09:26.442Z,98141.16
2022-12-29T23:12:00.765Z,98143.19
2022-12-29T23:17:47.984Z,98148.03
2022-12-29T23:20:35.717Z,98144.81
2022-12-29T23:23:03.049Z,98146.81
2022-12-29T23:25:30.089Z,98145.97
2022-12-29T23:27:57.555Z,98150.41
2022-12-29T23:30:24.579Z,98156.69
2022-12-29T23:32:51.544Z,98155.34
2022-12-29T23:35:18.591Z,98162.50
2022-12-29T23:37:45.857Z,98157.44
2022-12-29T23:40:13.259Z,98172.44
2022-12-29T23:42:40.284Z,98182.50
2022-12-29T23:45:08.013Z,98179.47
2022-12-29T23:47:35.426Z,98173.69
2022-12-29T23:50:02.509Z,98173.88
2022-12-29T23:52:29.465Z,98182.50
2022-12-29T23:54:56.441Z,98186.78
2022-12-29T23:57:23.835Z,98189.94
2022-12-29T23:59:50.801Z,98178.75
